createdAt,value
2022-11-29T00:00:12.823Z,1000.84
2022-11-29T00:01:12.779Z,1000.85
2022-11-29T00:02:12.980Z,1000.85
2022-11-29T00:03:12.848Z,1000.86
2022-11-29T00:04:12.762Z,1000.86
2022-11-29T00:05:12.761Z,1000.86
2022-11-29T00:06:12.754Z,1000.86
2022-11-29T00:07:12.716Z,1000.86
2022-11-29T00:08:12.716Z,1000.86
2022-11-29T00:09:12.697Z,1000.87
2022-11-29T00:10:12.692Z,1000.88
2022-11-29T00:11:12.663Z,1000.89
2022-11-29T00:12:12.689Z,1000.90
2022-11-29T00:13:12.660Z,1000.90
2022-11-29T00:14:12.656Z,1000.90
2022-11-29T00:15:12.625Z,1000.91
2022-11-29T00:16:12.709Z,1000.91
2022-11-29T00:17:12.632Z,1000.91
2022-11-29T00:18:12.604Z,1000.91
2022-11-29T00:19:12.589Z,1000.91
2022-11-29T00:20:12.588Z,1000.91
2022-11-29T00:21:12.564Z,1000.91
2022-11-29T00:22:12.597Z,1000.91
2022-11-29T00:23:12.537Z,1000.91
2022-11-29T00:24:12.553Z,1000.92
2022-11-29T00:25:12.530Z,1000.92
2022-11-29T00:26:12.520Z,1000.93
2022-11-29T00:27:12.510Z,1000.93
2022-11-29T00:28:12.524Z,1000.94
2022-11-29T00:29:12.480Z,1000.94
2022-11-29T00:30:12.536Z,1000.95
2022-11-29T00:31:12.533Z,1000.95
2022-11-29T00:32:12.466Z,1000.96
2022-11-29T00:33:12.471Z,1000.96
2022-11-29T00:34:12.434Z,1000.96
2022-11-29T00:35:12.419Z,1000.97
2022-11-29T00:36:12.433Z,1000.98
2022-11-29T00:37:12.416Z,1000.99
2022-11-29T00:38:12.400Z,1000.99
2022-11-29T00:39:12.389Z,1001.00
2022-11-29T00:40:12.384Z,1001.00
2022-11-29T00:41:12.355Z,1000.99
2022-11-29T00:42:12.342Z,1001.00
2022-11-29T00:43:12.337Z,1001.00
2022-11-29T00:44:18.375Z,1001.01
2022-11-29T00:45:12.323Z,1001.02
2022-11-29T00:46:12.382Z,1001.02
2022-11-29T00:47:12.288Z,1001.03
2022-11-29T00:48:12.302Z,1001.02
2022-11-29T00:49:12.275Z,1001.04
2022-11-29T00:50:12.282Z,1001.03
2022-11-29T00:51:12.255Z,1001.04
2022-11-29T00:52:12.248Z,1001.05
2022-11-29T00:53:12.230Z,1001.05
2022-11-29T00:54:12.228Z,1001.06
2022-11-29T00:55:12.202Z,1001.06
2022-11-29T00:56:12.227Z,1001.08
2022-11-29T00:57:12.183Z,1001.09
2022-11-29T00:58:12.205Z,1001.10
2022-11-29T00:59:12.159Z,1001.11
2022-11-29T01:00:12.163Z,1001.12
2022-11-29T01:01:12.273Z,1001.13
2022-11-29T01:02:12.181Z,1001.14
2022-11-29T01:03:12.131Z,1001.14
2022-11-29T01:04:12.143Z,1001.14
2022-11-29T01:05:12.141Z,1001.15
2022-11-29T01:06:12.118Z,1001.17
2022-11-29T01:07:12.075Z,1001.19
2022-11-29T01:08:12.111Z,1001.19
2022-11-29T01:09:12.063Z,1001.21
2022-11-29T01:10:12.059Z,1001.22
2022-11-29T01:11:12.028Z,1001.24
2022-11-29T01:12:12.056Z,1001.26
2022-11-29T01:13:12.047Z,1001.27
2022-11-29T01:14:12.052Z,1001.28
2022-11-29T01:15:12.031Z,1001.28
2022-11-29T01:16:11.999Z,1001.29
2022-11-29T01:17:11.975Z,1001.29
2022-11-29T01:18:11.965Z,1001.28
2022-11-29T01:19:11.974Z,1001.29
2022-11-29T01:20:11.965Z,1001.29
2022-11-29T01:21:11.947Z,1001.30
2022-11-29T01:22:11.925Z,1001.31
2022-11-29T01:23:11.904Z,1001.32
2022-11-29T01:24:11.913Z,1001.32
2022-11-29T01:25:11.913Z,1001.31
2022-11-29T01:26:11.884Z,1001.30
2022-11-29T01:27:11.865Z,1001.30
2022-11-29T01:28:11.877Z,1001.30
2022-11-29T01:29:11.842Z,1001.29
2022-11-29T01:30:11.868Z,1001.29
2022-11-29T01:31:11.848Z,1001.28
2022-11-29T01:32:11.830Z,1001.28
2022-11-29T01:33:11.807Z,1001.29
2022-11-29T01:34:11.801Z,1001.29
2022-11-29T01:35:11.806Z,1001.30
2022-11-29T01:36:11.785Z,1001.31
2022-11-29T01:37:11.773Z,1001.31
2022-11-29T01:38:11.766Z,1001.32
2022-11-29T01:39:11.736Z,1001.33
2022-11-29T01:40:11.758Z,1001.34
2022-11-29T01:41:11.728Z,1001.35
2022-11-29T01:42:11.734Z,1001.37
2022-11-29T01:43:11.724Z,1001.38
2022-11-29T01:44:11.691Z,1001.40
2022-11-29T01:45:11.761Z,1001.40
2022-11-29T01:46:11.724Z,1001.42
2022-11-29T01:47:11.656Z,1001.43
2022-11-29T01:48:11.659Z,1001.43
2022-11-29T01:49:11.639Z,1001.44
2022-11-29T01:50:11.650Z,1001.44
2022-11-29T01:51:11.616Z,1001.44
2022-11-29T01:52:11.612Z,1001.43
2022-11-29T01:53:11.614Z,1001.44
2022-11-29T01:54:11.596Z,1001.45
2022-11-29T01:55:11.581Z,1001.45
2022-11-29T01:56:11.598Z,1001.46
2022-11-29T01:57:11.562Z,1001.46
2022-11-29T01:58:11.569Z,1001.46
2022-11-29T01:59:11.528Z,1001.47
2022-11-29T02:00:11.533Z,1001.47
2022-11-29T02:01:11.540Z,1001.47
2022-11-29T02:02:11.539Z,1001.48
2022-11-29T02:03:11.484Z,1001.48
2022-11-29T02:04:11.501Z,1001.49
2022-11-29T02:05:11.479Z,1001.50
2022-11-29T02:06:11.455Z,1001.50
2022-11-29T02:07:11.443Z,1001.50
2022-11-29T02:08:11.434Z,1001.51
2022-11-29T02:09:11.423Z,1001.52
2022-11-29T02:10:11.436Z,1001.52
2022-11-29T02:11:11.395Z,1001.53
2022-11-29T02:12:11.421Z,1001.53
2022-11-29T02:13:11.380Z,1001.52
2022-11-29T02:14:11.378Z,1001.53
2022-11-29T02:15:11.356Z,1001.53
2022-11-29T02:16:11.399Z,1001.53
2022-11-29T02:17:11.334Z,1001.54
2022-11-29T02:18:11.340Z,1001.54
2022-11-29T02:19:11.314Z,1001.55
2022-11-29T02:20:11.338Z,1001.55
2022-11-29T02:21:11.310Z,1001.56
2022-11-29T02:22:11.309Z,1001.57
2022-11-29T02:23:11.280Z,1001.58
2022-11-29T02:24:11.277Z,1001.58
2022-11-29T02:25:11.302Z,1001.58
2022-11-29T02:26:11.256Z,1001.57
2022-11-29T02:27:11.239Z,1001.57
2022-11-29T02:28:11.219Z,1001.58
2022-11-29T02:29:11.219Z,1001.58
2022-11-29T02:30:11.201Z,1001.58
2022-11-29T02:31:11.278Z,1001.59
2022-11-29T02:32:11.190Z,1001.59
2022-11-29T02:33:11.179Z,1001.61
2022-11-29T02:34:11.144Z,1001.62
2022-11-29T02:35:11.158Z,1001.62
2022-11-29T02:36:11.131Z,1001.63
2022-11-29T02:37:11.753Z,1001.64
2022-11-29T02:38:11.117Z,1001.64
2022-11-29T02:39:11.112Z,1001.65
2022-11-29T02:40:11.098Z,1001.64
2022-11-29T02:41:11.113Z,1001.64
2022-11-29T02:42:11.076Z,1001.63
2022-11-29T02:43:11.073Z,1001.63
2022-11-29T02:44:11.047Z,1001.62
2022-11-29T02:45:11.041Z,1001.63
2022-11-29T02:46:11.077Z,1001.64
2022-11-29T02:47:11.037Z,1001.65
2022-11-29T02:48:11.020Z,1001.66
2022-11-29T02:49:11.008Z,1001.69
2022-11-29T02:50:10.982Z,1001.71
2022-11-29T02:51:10.986Z,1001.72
2022-11-29T02:52:10.981Z,1001.73
2022-11-29T02:53:10.958Z,1001.74
2022-11-29T02:54:10.947Z,1001.74
2022-11-29T02:55:10.934Z,1001.74
2022-11-29T02:56:10.923Z,1001.74
2022-11-29T02:57:10.940Z,1001.75
2022-11-29T02:58:10.900Z,1001.76
2022-11-29T02:59:10.896Z,1001.76
2022-11-29T03:00:10.882Z,1001.76
2022-11-29T03:01:10.925Z,1001.76
2022-11-29T03:02:10.901Z,1001.77
2022-11-29T03:03:10.866Z,1001.75
2022-11-29T03:04:10.862Z,1001.75
2022-11-29T03:05:10.835Z,1001.76
2022-11-29T03:06:10.811Z,1001.77
2022-11-29T03:07:10.820Z,1001.78
2022-11-29T03:08:10.806Z,1001.80
2022-11-29T03:09:10.787Z,1001.81
2022-11-29T03:10:10.770Z,1001.83
2022-11-29T03:11:10.767Z,1001.86
2022-11-29T03:12:10.762Z,1001.88
2022-11-29T03:13:10.771Z,1001.90
2022-11-29T03:14:10.719Z,1001.91
2022-11-29T03:15:10.723Z,1001.92
2022-11-29T03:16:10.741Z,1001.92
2022-11-29T03:17:10.708Z,1001.93
2022-11-29T03:18:10.705Z,1001.93
2022-11-29T03:19:10.683Z,1001.93
2022-11-29T03:20:10.664Z,1001.93
2022-11-29T03:21:10.665Z,1001.92
2022-11-29T03:22:10.636Z,1001.92
2022-11-29T03:23:10.665Z,1001.92
2022-11-29T03:24:10.624Z,1001.92
2022-11-29T03:25:10.626Z,1001.92
2022-11-29T03:26:10.598Z,1001.93
2022-11-29T03:27:10.615Z,1001.94
2022-11-29T03:28:10.584Z,1001.96
2022-11-29T03:29:10.587Z,1001.97
2022-11-29T03:30:10.582Z,1001.99
2022-11-29T03:31:10.628Z,1001.99
2022-11-29T03:32:10.538Z,1002.00
2022-11-29T03:33:10.553Z,1002.01
2022-11-29T03:34:10.508Z,1002.02
2022-11-29T03:35:10.532Z,1002.03
2022-11-29T03:36:10.501Z,1002.04
2022-11-29T03:37:10.496Z,1002.04
2022-11-29T03:38:10.510Z,1002.06
2022-11-29T03:39:10.465Z,1002.06
2022-11-29T03:40:10.462Z,1002.05
2022-11-29T03:41:10.511Z,1002.05
2022-11-29T03:42:10.428Z,1002.06
2022-11-29T03:43:10.435Z,1002.07
2022-11-29T03:44:10.413Z,1002.08
2022-11-29T03:45:10.428Z,1002.09
2022-11-29T03:46:10.480Z,1002.10
2022-11-29T03:47:10.398Z,1002.10
2022-11-29T03:48:10.404Z,1002.10
2022-11-29T03:49:10.367Z,1002.11
2022-11-29T03:50:10.342Z,1002.10
2022-11-29T03:51:10.360Z,1002.11
2022-11-29T03:52:10.325Z,1002.11
2022-11-29T03:53:10.330Z,1002.12
2022-11-29T03:54:10.313Z,1002.13
2022-11-29T03:55:10.306Z,1002.14
2022-11-29T03:56:10.296Z,1002.13
2022-11-29T03:57:10.284Z,1002.15
2022-11-29T03:58:10.300Z,1002.15
2022-11-29T03:59:10.264Z,1002.17
2022-11-29T04:00:10.239Z,1002.20
2022-11-29T04:01:10.283Z,1002.21
2022-11-29T04:02:10.232Z,1002.23
2022-11-29T04:03:10.227Z,1002.23
2022-11-29T04:04:10.245Z,1002.23
2022-11-29T04:05:10.203Z,1002.24
2022-11-29T04:06:10.176Z,1002.23
2022-11-29T04:07:10.189Z,1002.24
2022-11-29T04:08:10.219Z,1002.24
2022-11-29T04:09:10.152Z,1002.25
2022-11-29T04:10:10.167Z,1002.27
2022-11-29T04:11:10.127Z,1002.27
2022-11-29T04:12:10.137Z,1002.27
2022-11-29T04:13:10.137Z,1002.27
2022-11-29T04:14:10.127Z,1002.29
2022-11-29T04:15:15.231Z,1002.30
2022-11-29T04:16:10.143Z,1002.33
2022-11-29T04:17:10.064Z,1002.34
2022-11-29T04:18:10.066Z,1002.35
2022-11-29T04:19:10.048Z,1002.35
2022-11-29T04:20:10.056Z,1002.36
2022-11-29T04:21:10.041Z,1002.38
2022-11-29T04:22:10.008Z,1002.39
2022-11-29T04:23:10.020Z,1002.41
2022-11-29T04:24:09.986Z,1002.41
2022-11-29T04:25:09.979Z,1002.41
2022-11-29T04:26:09.981Z,1002.42
2022-11-29T04:27:09.973Z,1002.41
2022-11-29T04:28:09.950Z,1002.42
2022-11-29T04:29:09.957Z,1002.44
2022-11-29T04:30:09.926Z,1002.44
2022-11-29T04:31:09.935Z,1002.45
2022-11-29T04:32:09.902Z,1002.45
2022-11-29T04:33:09.902Z,1002.46
2022-11-29T04:34:09.888Z,1002.47
2022-11-29T04:35:09.878Z,1002.47
2022-11-29T04:36:09.857Z,1002.47
2022-11-29T04:37:09.855Z,1002.48
2022-11-29T04:38:09.833Z,1002.48
2022-11-29T04:39:09.827Z,1002.49
2022-11-29T04:40:09.833Z,1002.49
2022-11-29T04:41:09.828Z,1002.49
2022-11-29T04:42:09.787Z,1002.49
2022-11-29T04:43:09.793Z,1002.49
2022-11-29T04:44:09.773Z,1002.49
2022-11-29T04:45:09.783Z,1002.50
2022-11-29T04:46:09.810Z,1002.48
2022-11-29T04:47:09.740Z,1002.48
2022-11-29T04:48:09.733Z,1002.49
2022-11-29T04:49:09.745Z,1002.51
2022-11-29T04:50:09.704Z,1002.52
2022-11-29T04:51:09.725Z,1002.54
2022-11-29T04:52:09.683Z,1002.56
2022-11-29T04:53:09.686Z,1002.57
2022-11-29T04:54:09.698Z,1002.58
2022-11-29T04:55:09.656Z,1002.60
2022-11-29T04:56:09.650Z,1002.60
2022-11-29T04:57:09.645Z,1002.61
2022-11-29T04:58:09.620Z,1002.62
2022-11-29T04:59:09.645Z,1002.63
2022-11-29T05:00:09.600Z,1002.63
2022-11-29T05:01:09.691Z,1002.64
2022-11-29T05:02:09.577Z,1002.64
2022-11-29T05:03:09.576Z,1002.65
2022-11-29T05:04:09.582Z,1002.65
2022-11-29T05:05:09.582Z,1002.66
2022-11-29T05:06:09.534Z,1002.66
2022-11-29T05:07:09.552Z,1002.67
2022-11-29T05:08:09.514Z,1002.68
2022-11-29T05:09:09.517Z,1002.67
2022-11-29T05:10:09.512Z,1002.68
2022-11-29T05:11:09.495Z,1002.69
2022-11-29T05:12:09.480Z,1002.69
2022-11-29T05:13:09.480Z,1002.70
2022-11-29T05:14:09.474Z,1002.72
2022-11-29T05:15:09.469Z,1002.73
2022-11-29T05:16:09.464Z,1002.73
2022-11-29T05:17:09.434Z,1002.72
2022-11-29T05:18:09.412Z,1002.72
2022-11-29T05:19:09.423Z,1002.72
2022-11-29T05:20:09.404Z,1002.72
2022-11-29T05:21:09.395Z,1002.73
2022-11-29T05:22:09.360Z,1002.73
2022-11-29T05:23:09.381Z,1002.73
2022-11-29T05:24:09.365Z,1002.73
2022-11-29T05:25:09.339Z,1002.74
2022-11-29T05:26:09.326Z,1002.74
2022-11-29T05:27:09.319Z,1002.75
2022-11-29T05:28:10.396Z,1002.75
2022-11-29T05:29:09.308Z,1002.75
2022-11-29T05:30:09.294Z,1002.76
2022-11-29T05:31:09.333Z,1002.78
2022-11-29T05:32:09.261Z,1002.79
2022-11-29T05:33:09.268Z,1002.80
2022-11-29T05:34:09.242Z,1002.82
2022-11-29T05:35:09.240Z,1002.83
2022-11-29T05:36:09.242Z,1002.84
2022-11-29T05:37:09.214Z,1002.84
2022-11-29T05:38:09.199Z,1002.85
2022-11-29T05:39:09.187Z,1002.86
2022-11-29T05:40:09.176Z,1002.87
2022-11-29T05:41:09.197Z,1002.87
2022-11-29T05:42:09.150Z,1002.89
2022-11-29T05:43:09.165Z,1002.90
2022-11-29T05:44:09.236Z,1002.91
2022-11-29T05:45:09.131Z,1002.92
2022-11-29T05:46:09.240Z,1002.92
2022-11-29T05:47:09.104Z,1002.92
2022-11-29T05:48:09.123Z,1002.92
2022-11-29T05:49:09.094Z,1002.92
2022-11-29T05:50:09.069Z,1002.92
2022-11-29T05:51:09.074Z,1002.93
2022-11-29T05:52:09.058Z,1002.94
2022-11-29T05:53:09.056Z,1002.95
2022-11-29T05:54:09.025Z,1002.96
2022-11-29T05:55:09.024Z,1002.97
2022-11-29T05:56:09.014Z,1002.98
2022-11-29T05:57:09.029Z,1003.00
2022-11-29T05:58:08.981Z,1003.01
2022-11-29T05:59:08.981Z,1003.02
2022-11-29T06:00:08.964Z,1003.03
2022-11-29T06:01:08.963Z,1003.05
2022-11-29T06:02:09.005Z,1003.07
2022-11-29T06:03:08.979Z,1003.09
2022-11-29T06:04:13.298Z,1003.10
2022-11-29T06:05:08.925Z,1003.12
2022-11-29T06:06:08.908Z,1003.14
2022-11-29T06:07:08.910Z,1003.14
2022-11-29T06:08:08.882Z,1003.15
2022-11-29T06:09:08.888Z,1003.16
2022-11-29T06:10:08.857Z,1003.16
2022-11-29T06:11:08.847Z,1003.17
2022-11-29T06:12:08.853Z,1003.17
2022-11-29T06:13:08.837Z,1003.18
2022-11-29T06:14:08.807Z,1003.19
2022-11-29T06:15:08.816Z,1003.20
2022-11-29T06:16:08.816Z,1003.22
2022-11-29T06:17:08.812Z,1003.23
2022-11-29T06:18:08.771Z,1003.24
2022-11-29T06:19:08.779Z,1003.25
2022-11-29T06:20:08.761Z,1003.26
2022-11-29T06:21:08.783Z,1003.28
2022-11-29T06:22:08.735Z,1003.28
2022-11-29T06:23:08.747Z,1003.29
2022-11-29T06:24:08.705Z,1003.30
2022-11-29T06:25:08.706Z,1003.31
2022-11-29T06:26:08.682Z,1003.33
2022-11-29T06:27:08.721Z,1003.34
2022-11-29T06:28:08.671Z,1003.33
2022-11-29T06:29:08.763Z,1003.35
2022-11-29T06:30:08.645Z,1003.34
2022-11-29T06:31:08.689Z,1003.35
2022-11-29T06:32:08.624Z,1003.37
2022-11-29T06:33:08.632Z,1003.39
2022-11-29T06:34:08.623Z,1003.41
2022-11-29T06:35:08.588Z,1003.43
2022-11-29T06:36:08.587Z,1003.46
2022-11-29T06:37:08.562Z,1003.48
2022-11-29T06:38:08.571Z,1003.48
2022-11-29T06:39:08.566Z,1003.49
2022-11-29T06:40:08.555Z,1003.50
2022-11-29T06:41:08.530Z,1003.50
2022-11-29T06:42:08.528Z,1003.51
2022-11-29T06:43:08.510Z,1003.52
2022-11-29T06:44:08.505Z,1003.53
2022-11-29T06:45:08.433Z,1003.54
2022-11-29T06:46:08.434Z,1003.56
2022-11-29T06:47:08.534Z,1003.58
2022-11-29T06:48:08.480Z,1003.58
2022-11-29T06:49:08.412Z,1003.58
2022-11-29T06:50:08.485Z,1003.59
2022-11-29T06:51:08.419Z,1003.59
2022-11-29T06:52:08.373Z,1003.59
2022-11-29T06:53:08.338Z,1003.59
2022-11-29T06:54:08.369Z,1003.60
2022-11-29T06:55:08.329Z,1003.60
2022-11-29T06:56:08.346Z,1003.61
2022-11-29T06:57:08.748Z,1003.63
2022-11-29T06:58:08.515Z,1003.64
2022-11-29T06:59:08.293Z,1003.65
2022-11-29T07:00:08.443Z,1003.66
2022-11-29T07:01:08.354Z,1003.68
2022-11-29T07:02:08.359Z,1003.69
2022-11-29T07:03:08.244Z,1003.69
2022-11-29T07:04:08.239Z,1003.70
2022-11-29T07:05:08.230Z,1003.71
2022-11-29T07:06:08.214Z,1003.72
2022-11-29T07:07:08.201Z,1003.73
2022-11-29T07:08:08.191Z,1003.74
2022-11-29T07:09:08.186Z,1003.76
2022-11-29T07:10:13.451Z,1003.78
2022-11-29T07:11:08.164Z,1003.80
2022-11-29T07:12:08.154Z,1003.81
2022-11-29T07:13:08.136Z,1003.82
2022-11-29T07:14:08.148Z,1003.82
2022-11-29T07:15:08.125Z,1003.83
2022-11-29T07:16:08.178Z,1003.84
2022-11-29T07:17:08.086Z,1003.85
2022-11-29T07:18:08.094Z,1003.88
2022-11-29T07:19:08.086Z,1003.89
2022-11-29T07:20:08.092Z,1003.92
2022-11-29T07:21:08.063Z,1003.94
2022-11-29T07:22:08.045Z,1003.96
2022-11-29T07:23:08.029Z,1003.99
2022-11-29T07:24:08.015Z,1004.01
2022-11-29T07:25:08.066Z,1004.03
2022-11-29T07:26:08.050Z,1004.04
2022-11-29T07:27:08.004Z,1004.05
2022-11-29T07:28:07.980Z,1004.05
2022-11-29T07:29:07.990Z,1004.07
2022-11-29T07:30:07.974Z,1004.08
2022-11-29T07:31:07.962Z,1004.09
2022-11-29T07:32:07.947Z,1004.11
2022-11-29T07:33:07.913Z,1004.10
2022-11-29T07:34:07.918Z,1004.12
2022-11-29T07:35:07.892Z,1004.13
2022-11-29T07:36:07.905Z,1004.13
2022-11-29T07:37:07.895Z,1004.15
2022-11-29T07:38:07.896Z,1004.16
2022-11-29T07:39:07.865Z,1004.17
2022-11-29T07:40:07.902Z,1004.18
2022-11-29T07:41:07.869Z,1004.20
2022-11-29T07:42:07.828Z,1004.21
2022-11-29T07:43:07.879Z,1004.21
2022-11-29T07:44:07.804Z,1004.22
2022-11-29T07:45:07.782Z,1004.22
2022-11-29T07:46:07.804Z,1004.24
2022-11-29T07:47:07.775Z,1004.25
2022-11-29T07:48:07.867Z,1004.26
2022-11-29T07:49:07.750Z,1004.27
2022-11-29T07:50:07.750Z,1004.28
2022-11-29T07:51:07.759Z,1004.30
2022-11-29T07:52:07.735Z,1004.33
2022-11-29T07:53:07.708Z,1004.35
2022-11-29T07:54:07.712Z,1004.37
2022-11-29T07:55:07.701Z,1004.38
2022-11-29T07:56:07.683Z,1004.39
2022-11-29T07:57:07.662Z,1004.39
2022-11-29T07:58:07.684Z,1004.40
2022-11-29T07:59:07.694Z,1004.40
2022-11-29T08:00:07.682Z,1004.41
2022-11-29T08:01:07.668Z,1004.41
2022-11-29T08:02:11.718Z,1004.40
2022-11-29T08:03:07.598Z,1004.40
2022-11-29T08:04:07.599Z,1004.40
2022-11-29T08:05:07.576Z,1004.40
2022-11-29T08:06:07.574Z,1004.40
2022-11-29T08:07:07.590Z,1004.40
2022-11-29T08:08:07.564Z,1004.41
2022-11-29T08:09:07.539Z,1004.42
2022-11-29T08:10:07.559Z,1004.43
2022-11-29T08:11:07.526Z,1004.46
2022-11-29T08:12:07.523Z,1004.46
2022-11-29T08:13:07.490Z,1004.47
2022-11-29T08:14:07.489Z,1004.48
2022-11-29T08:15:07.473Z,1004.48
2022-11-29T08:16:07.545Z,1004.48
2022-11-29T08:17:07.444Z,1004.49
2022-11-29T08:18:07.458Z,1004.49
2022-11-29T08:19:07.436Z,1004.49
2022-11-29T08:20:07.446Z,1004.48
2022-11-29T08:21:07.414Z,1004.48
2022-11-29T08:22:07.407Z,1004.49
2022-11-29T08:23:07.392Z,1004.49
2022-11-29T08:24:07.383Z,1004.49
2022-11-29T08:25:07.382Z,1004.51
2022-11-29T08:26:07.362Z,1004.52
2022-11-29T08:27:07.362Z,1004.52
2022-11-29T08:28:07.360Z,1004.53
2022-11-29T08:29:07.336Z,1004.54
2022-11-29T08:30:07.321Z,1004.55
2022-11-29T08:31:07.350Z,1004.56
2022-11-29T08:32:07.295Z,1004.57
2022-11-29T08:33:07.429Z,1004.57
2022-11-29T08:34:07.284Z,1004.58
2022-11-29T08:35:07.267Z,1004.58
2022-11-29T08:36:07.258Z,1004.59
2022-11-29T08:37:07.252Z,1004.60
2022-11-29T08:38:07.234Z,1004.61
2022-11-29T08:39:09.464Z,1004.62
2022-11-29T08:40:07.201Z,1004.64
2022-11-29T08:41:07.189Z,1004.65
2022-11-29T08:42:07.226Z,1004.66
2022-11-29T08:43:07.165Z,1004.66
2022-11-29T08:44:07.189Z,1004.67
2022-11-29T08:45:07.138Z,1004.67
2022-11-29T08:46:07.174Z,1004.67
2022-11-29T08:47:07.138Z,1004.67
2022-11-29T08:48:07.227Z,1004.68
2022-11-29T08:49:07.152Z,1004.68
2022-11-29T08:50:07.121Z,1004.68
2022-11-29T08:51:07.086Z,1004.69
2022-11-29T08:52:07.085Z,1004.69
2022-11-29T08:53:07.068Z,1004.70
2022-11-29T08:54:07.103Z,1004.70
2022-11-29T08:55:07.049Z,1004.70
2022-11-29T08:56:31.921Z,1004.69
2022-11-29T08:58:07.088Z,1004.67
2022-11-29T08:59:07.008Z,1004.66
2022-11-29T09:00:07.008Z,1004.65
2022-11-29T09:01:07.053Z,1004.66
2022-11-29T09:02:07.038Z,1004.66
2022-11-29T09:03:06.954Z,1004.67
2022-11-29T09:04:06.968Z,1004.68
2022-11-29T09:05:07.061Z,1004.69
2022-11-29T09:06:12.030Z,1004.70
2022-11-29T09:07:06.935Z,1004.72
2022-11-29T09:08:06.951Z,1004.75
2022-11-29T09:09:06.904Z,1004.76
2022-11-29T09:10:06.900Z,1004.78
2022-11-29T09:11:06.906Z,1004.79
2022-11-29T09:12:06.875Z,1004.81
2022-11-29T09:13:06.858Z,1004.82
2022-11-29T09:14:06.847Z,1004.83
2022-11-29T09:15:06.836Z,1004.85
2022-11-29T09:16:06.871Z,1004.86
2022-11-29T09:17:06.809Z,1004.87
2022-11-29T09:18:06.809Z,1004.88
2022-11-29T09:19:06.792Z,1004.90
2022-11-29T09:20:06.791Z,1004.91
2022-11-29T09:21:06.765Z,1004.91
2022-11-29T09:22:06.794Z,1004.91
2022-11-29T09:23:06.747Z,1004.92
2022-11-29T09:24:06.817Z,1004.93
2022-11-29T09:25:06.750Z,1004.94
2022-11-29T09:26:06.759Z,1004.95
2022-11-29T09:27:06.741Z,1004.98
2022-11-29T09:28:06.764Z,1004.98
2022-11-29T09:29:06.699Z,1005.00
2022-11-29T09:30:06.709Z,1005.01
2022-11-29T09:31:06.669Z,1005.03
2022-11-29T09:32:06.690Z,1005.04
2022-11-29T09:33:06.641Z,1005.04
2022-11-29T09:34:06.986Z,1005.07
2022-11-29T09:35:06.619Z,1005.08
2022-11-29T09:36:06.630Z,1005.10
2022-11-29T09:37:06.594Z,1005.10
2022-11-29T09:38:06.611Z,1005.11
2022-11-29T09:39:06.580Z,1005.12
2022-11-29T09:40:06.576Z,1005.13
2022-11-29T09:41:06.593Z,1005.13
2022-11-29T09:42:06.564Z,1005.13
2022-11-29T09:43:06.554Z,1005.14
2022-11-29T09:44:06.539Z,1005.14
2022-11-29T09:45:06.518Z,1005.15
2022-11-29T09:46:06.523Z,1005.15
2022-11-29T09:47:06.490Z,1005.16
2022-11-29T09:48:06.502Z,1005.17
2022-11-29T09:49:06.464Z,1005.18
2022-11-29T09:50:06.474Z,1005.18
2022-11-29T09:51:06.455Z,1005.20
2022-11-29T09:52:06.432Z,1005.21
2022-11-29T09:53:06.459Z,1005.22
2022-11-29T09:54:06.430Z,1005.22
2022-11-29T09:55:06.410Z,1005.24
2022-11-29T09:56:06.431Z,1005.24
2022-11-29T09:57:10.545Z,1005.25
2022-11-29T09:58:06.375Z,1005.26
2022-11-29T09:59:06.387Z,1005.26
2022-11-29T10:00:06.352Z,1005.27
2022-11-29T10:01:06.396Z,1005.28
2022-11-29T10:02:06.382Z,1005.29
2022-11-29T10:03:06.319Z,1005.30
2022-11-29T10:04:06.344Z,1005.31
2022-11-29T10:05:06.308Z,1005.32
2022-11-29T10:06:06.299Z,1005.32
2022-11-29T10:07:06.275Z,1005.32
2022-11-29T10:08:06.287Z,1005.32
2022-11-29T10:09:06.281Z,1005.31
2022-11-29T10:10:06.287Z,1005.30
2022-11-29T10:11:06.233Z,1005.30
2022-11-29T10:12:06.237Z,1005.30
2022-11-29T10:13:06.213Z,1005.30
2022-11-29T10:14:06.212Z,1005.30
2022-11-29T10:15:06.239Z,1005.29
2022-11-29T10:16:06.271Z,1005.30
2022-11-29T10:17:06.160Z,1005.30
2022-11-29T10:18:06.169Z,1005.31
2022-11-29T10:19:06.144Z,1005.31
2022-11-29T10:20:06.146Z,1005.32
2022-11-29T10:21:06.126Z,1005.33
2022-11-29T10:22:06.139Z,1005.34
2022-11-29T10:23:06.109Z,1005.34
2022-11-29T10:24:06.099Z,1005.34
2022-11-29T10:25:06.079Z,1005.34
2022-11-29T10:26:06.100Z,1005.34
2022-11-29T10:27:06.059Z,1005.33
2022-11-29T10:28:06.053Z,1005.32
2022-11-29T10:29:06.042Z,1005.32
2022-11-29T10:30:06.042Z,1005.31
2022-11-29T10:31:06.112Z,1005.31
2022-11-29T10:32:10.272Z,1005.30
2022-11-29T10:33:06.116Z,1005.30
2022-11-29T10:34:06.002Z,1005.31
2022-11-29T10:35:05.977Z,1005.32
2022-11-29T10:36:05.985Z,1005.32
2022-11-29T10:37:05.969Z,1005.33
2022-11-29T10:39:08.822Z,1005.35
2022-11-29T10:40:05.939Z,1005.36
2022-11-29T10:41:05.907Z,1005.37
2022-11-29T10:42:05.945Z,1005.38
2022-11-29T10:43:05.891Z,1005.39
2022-11-29T10:44:05.885Z,1005.40
2022-11-29T10:45:05.873Z,1005.40
2022-11-29T10:46:05.962Z,1005.40
2022-11-29T10:47:10.703Z,1005.41
2022-11-29T10:48:05.924Z,1005.41
2022-11-29T10:49:07.840Z,1005.41
2022-11-29T10:50:05.837Z,1005.41
2022-11-29T10:51:05.812Z,1005.41
2022-11-29T10:52:05.849Z,1005.40
2022-11-29T10:53:05.825Z,1005.39
2022-11-29T10:54:05.774Z,1005.38
2022-11-29T10:55:05.775Z,1005.38
2022-11-29T10:56:07.688Z,1005.37
2022-11-29T10:57:05.771Z,1005.37
2022-11-29T10:58:05.746Z,1005.37
2022-11-29T10:59:05.730Z,1005.37
2022-11-29T11:00:05.724Z,1005.38
2022-11-29T11:01:05.738Z,1005.39
2022-11-29T11:02:05.687Z,1005.40
2022-11-29T11:03:05.711Z,1005.41
2022-11-29T11:04:05.669Z,1005.42
2022-11-29T11:05:05.666Z,1005.43
2022-11-29T11:06:05.647Z,1005.43
2022-11-29T11:07:05.658Z,1005.42
2022-11-29T11:08:05.649Z,1005.42
2022-11-29T11:09:05.637Z,1005.42
2022-11-29T11:10:05.610Z,1005.40
2022-11-29T11:11:05.642Z,1005.41
2022-11-29T11:12:05.587Z,1005.40
2022-11-29T11:13:05.588Z,1005.41
2022-11-29T11:14:05.568Z,1005.41
2022-11-29T11:15:05.685Z,1005.41
2022-11-29T11:16:05.551Z,1005.42
2022-11-29T11:17:05.591Z,1005.42
2022-11-29T11:18:05.519Z,1005.42
2022-11-29T11:19:05.537Z,1005.43
2022-11-29T11:20:05.512Z,1005.44
2022-11-29T11:21:05.511Z,1005.44
2022-11-29T11:22:05.479Z,1005.44
2022-11-29T11:23:05.480Z,1005.45
2022-11-29T11:24:05.478Z,1005.45
2022-11-29T11:25:05.573Z,1005.45
2022-11-29T11:26:05.433Z,1005.45
2022-11-29T11:27:05.442Z,1005.46
2022-11-29T11:28:05.412Z,1005.47
2022-11-29T11:29:05.527Z,1005.48
2022-11-29T11:30:05.395Z,1005.49
2022-11-29T11:31:05.409Z,1005.49
2022-11-29T11:32:05.379Z,1005.50
2022-11-29T11:33:05.375Z,1005.51
2022-11-29T11:34:05.561Z,1005.52
2022-11-29T11:35:05.500Z,1005.51
2022-11-29T11:36:05.342Z,1005.52
2022-11-29T11:37:05.330Z,1005.52
2022-11-29T11:38:05.335Z,1005.52
2022-11-29T11:39:05.325Z,1005.52
2022-11-29T11:40:05.427Z,1005.51
2022-11-29T11:41:05.308Z,1005.51
2022-11-29T11:42:05.278Z,1005.52
2022-11-29T11:43:05.304Z,1005.52
2022-11-29T11:44:14.887Z,1005.53
2022-11-29T11:45:05.281Z,1005.54
2022-11-29T11:46:08.113Z,1005.55
2022-11-29T11:47:05.226Z,1005.56
2022-11-29T11:48:05.236Z,1005.55
2022-11-29T11:49:05.780Z,1005.58
2022-11-29T11:50:05.181Z,1005.60
2022-11-29T11:51:05.243Z,1005.60
2022-11-29T11:52:05.179Z,1005.61
2022-11-29T11:53:05.159Z,1005.61
2022-11-29T11:54:05.156Z,1005.59
2022-11-29T11:55:05.139Z,1005.60
2022-11-29T11:56:05.115Z,1005.60
2022-11-29T11:57:05.126Z,1005.62
2022-11-29T11:58:09.673Z,1005.62
2022-11-29T11:59:05.112Z,1005.64
2022-11-29T12:00:07.264Z,1005.64
2022-11-29T12:01:05.907Z,1005.63
2022-11-29T12:02:05.063Z,1005.64
2022-11-29T12:03:05.199Z,1005.62
2022-11-29T12:04:05.026Z,1005.63
2022-11-29T12:05:05.061Z,1005.62
2022-11-29T12:06:05.018Z,1005.62
2022-11-29T12:07:05.008Z,1005.61